首页
METAR-TAF:

METAR-TAF

机场 :

巴東, 印度尼西亚

纬度: 00-47-12S, 经度: 100-16-50E, 海拔: 5米

当前天气观测

该预报发布于2小时和58分钟前的16:00 UTC
风速3节,风向东北,在北转东北之间变化
温度 26°C
湿度 94%
气压 1011 hPa
能见度10公里或以上
少量云层高于1700英尺, 积雨云.
散云层高于2000英尺
附近有雷暴

METAR: WIEE 211600Z 05003KT 030V100 9999 VCTS FEW017CB SCT020 26/25 Q1011 NOSIG

时间: 01:58 (18:58 UTC)

预报

该预报发布于1小时和58分钟前的17:00 UTC
预报有效从21日的 18点(UTC)到 22日的 18点(UTC)
风速4节,风向
能見度: 9000
少量云层高于1800英尺, 积雨云.
散云层高于2000英尺
成为
从 22日的 00点(UTC)到 22日的 02点(UTC)
风速3节,风向北转东北
能见度10公里或以上
散云层高于2000英尺
成为
从 22日的 10点(UTC)到 22日的 12点(UTC)
风速3节,风向多变

TAF: WIEE 211700Z 2118/2218 35004KT 9000 FEW018CB SCT020 BECMG 2200/2202 02003KT 9999 SCT020 BECMG 2210/2212 VRB03KT

超过4000个机场的气象观测和天气预报(METAR&TAF报告)。

可查询的气象台以黄色和红色小点在地图上表示。

将鼠标移到小点上方,可查看气象台名称。

然后点击查看天气观测和预报。

如需切换地图:点击带黑十字的绿色按钮放大地图;点击带横线的绿色按钮缩小地图;或者点击绿色箭头查看邻近地区的地图。


METAR-TAF: